createdAt,value
2018-10-16T00:00:04.065Z,0
2018-10-16T00:01:16.262Z,0
2018-10-16T00:02:28.533Z,0
2018-10-16T00:03:40.720Z,0
2018-10-16T00:04:52.922Z,0
2018-10-16T00:06:05.113Z,0
2018-10-16T00:07:17.242Z,0
2018-10-16T00:08:29.518Z,0
2018-10-16T00:09:41.698Z,0
2018-10-16T00:10:53.821Z,0
2018-10-16T00:12:06.100Z,0
2018-10-16T00:13:18.285Z,0
2018-10-16T00:14:30.498Z,0
2018-10-16T00:15:42.674Z,0
2018-10-16T00:16:54.888Z,0
2018-10-16T00:18:07.067Z,0
2018-10-16T00:19:19.189Z,0
2018-10-16T00:20:31.456Z,0
2018-10-16T00:21:43.656Z,0
2018-10-16T00:22:55.784Z,0
2018-10-16T00:24:07.967Z,0
2018-10-16T00:25:20.183Z,0
2018-10-16T00:26:32.436Z,0
2018-10-16T00:27:44.574Z,0
2018-10-16T00:28:56.849Z,0
2018-10-16T00:30:08.943Z,0
2018-10-16T00:31:23.843Z,0
2018-10-16T00:32:33.331Z,0
2018-10-16T00:33:45.529Z,0
2018-10-16T00:34:57.798Z,0
2018-10-16T00:36:09.917Z,0
2018-10-16T00:37:22.207Z,0
2018-10-16T00:38:34.296Z,0
2018-10-16T00:39:46.571Z,0
2018-10-16T00:40:58.716Z,0
2018-10-16T00:42:10.956Z,0
2018-10-16T00:43:23.073Z,0
2018-10-16T00:44:35.348Z,0
2018-10-16T00:45:47.476Z,0
2018-10-16T00:46:59.724Z,0
2018-10-16T00:48:11.919Z,0
2018-10-16T00:49:24.109Z,0
2018-10-16T00:50:36.307Z,0
2018-10-16T00:51:48.434Z,0
2018-10-16T00:53:00.774Z,0
2018-10-16T00:54:12.961Z,0
2018-10-16T00:55:25.100Z,0
2018-10-16T00:56:37.287Z,0
2018-10-16T00:57:49.469Z,0
2018-10-16T00:59:01.670Z,0
2018-10-16T01:00:13.790Z,0
2018-10-16T01:01:26.055Z,0
2018-10-16T01:02:38.252Z,0
2018-10-16T01:03:50.448Z,0
2018-10-16T01:05:02.650Z,0
2018-10-16T01:06:14.750Z,0
2018-10-16T01:07:26.952Z,0
2018-10-16T01:08:39.211Z,0
2018-10-16T01:09:51.335Z,0
2018-10-16T01:11:03.608Z,0
2018-10-16T01:12:15.749Z,0
2018-10-16T01:13:27.989Z,0
2018-10-16T01:14:40.106Z,0
2018-10-16T01:15:52.451Z,0
2018-10-16T01:17:04.582Z,0
2018-10-16T01:18:16.767Z,0
2018-10-16T01:19:28.960Z,0
2018-10-16T01:20:41.149Z,0
2018-10-16T01:21:53.276Z,0
2018-10-16T01:23:05.540Z,0
2018-10-16T01:24:17.658Z,0
2018-10-16T01:25:29.941Z,0
2018-10-16T01:26:42.112Z,0
2018-10-16T01:27:54.315Z,0
2018-10-16T01:29:06.430Z,0
2018-10-16T01:30:18.699Z,0
2018-10-16T01:31:30.892Z,0
2018-10-16T01:32:43.132Z,0
2018-10-16T01:33:55.289Z,0
2018-10-16T01:35:08.927Z,0
2018-10-16T01:36:19.671Z,0
2018-10-16T01:37:31.953Z,0
2018-10-16T01:38:44.048Z,0
2018-10-16T01:39:56.264Z,0
2018-10-16T01:41:08.437Z,0
2018-10-16T01:42:20.652Z,0
2018-10-16T01:43:32.765Z,0
2018-10-16T01:44:44.948Z,0
2018-10-16T01:45:57.231Z,0
2018-10-16T01:47:09.341Z,0
2018-10-16T01:48:21.617Z,0
2018-10-16T01:49:33.804Z,0
2018-10-16T01:50:45.984Z,0
2018-10-16T01:51:58.185Z,0
2018-10-16T01:53:10.395Z,0
2018-10-16T01:54:22.586Z,0
2018-10-16T01:55:34.763Z,0
2018-10-16T01:56:46.913Z,0
2018-10-16T01:57:59.148Z,0
2018-10-16T01:59:11.270Z,0
2018-10-16T02:00:23.531Z,0
2018-10-16T02:01:35.759Z,0
2018-10-16T02:02:47.852Z,0
2018-10-16T02:04:00.124Z,0
2018-10-16T02:05:12.239Z,0
2018-10-16T02:06:24.500Z,0
2018-10-16T02:07:36.704Z,0
2018-10-16T02:08:48.890Z,0
2018-10-16T02:10:01.129Z,0
2018-10-16T02:11:13.208Z,0
2018-10-16T02:12:25.471Z,0
2018-10-16T02:13:37.667Z,0
2018-10-16T02:14:49.864Z,0
2018-10-16T02:16:02.058Z,0
2018-10-16T02:17:14.934Z,0
2018-10-16T02:18:26.440Z,0
2018-10-16T02:19:38.560Z,0
2018-10-16T02:20:50.833Z,0
2018-10-16T02:22:02.953Z,0
2018-10-16T02:23:15.200Z,0
2018-10-16T02:24:27.411Z,0
2018-10-16T02:25:39.607Z,0
2018-10-16T02:26:51.811Z,0
2018-10-16T02:28:03.927Z,0
2018-10-16T02:29:16.191Z,0
2018-10-16T02:30:28.378Z,0
2018-10-16T02:31:40.572Z,0
2018-10-16T02:32:52.690Z,0
2018-10-16T02:34:04.885Z,0
2018-10-16T02:35:17.077Z,0
2018-10-16T02:36:29.347Z,0
2018-10-16T02:37:41.547Z,0
2018-10-16T02:38:53.683Z,0
2018-10-16T02:40:05.943Z,0
2018-10-16T02:41:18.052Z,0
2018-10-16T02:42:30.329Z,0
2018-10-16T02:43:42.507Z,0
2018-10-16T02:44:54.710Z,0
2018-10-16T02:46:06.892Z,0
2018-10-16T02:47:19.094Z,0
2018-10-16T02:48:31.281Z,0
2018-10-16T02:49:43.489Z,0
2018-10-16T02:50:55.688Z,0
2018-10-16T02:52:07.873Z,0
2018-10-16T02:53:19.981Z,0
2018-10-16T02:54:32.259Z,0
2018-10-16T02:55:44.446Z,0
2018-10-16T02:56:56.587Z,0
2018-10-16T02:58:08.758Z,0
2018-10-16T02:59:21.024Z,0
2018-10-16T03:00:33.213Z,0
2018-10-16T03:01:45.413Z,0
2018-10-16T03:02:57.681Z,0
2018-10-16T03:04:09.794Z,0
2018-10-16T03:05:22.002Z,0
2018-10-16T03:06:34.185Z,0
2018-10-16T03:07:46.379Z,0
2018-10-16T03:08:58.504Z,0
2018-10-16T03:10:10.764Z,0
2018-10-16T03:11:22.956Z,0
2018-10-16T03:12:35.158Z,0
2018-10-16T03:13:47.349Z,0
2018-10-16T03:14:59.639Z,0
2018-10-16T03:16:11.766Z,0
2018-10-16T03:17:23.961Z,0
2018-10-16T03:18:36.164Z,0
2018-10-16T03:19:48.247Z,0
2018-10-16T03:21:00.510Z,0
2018-10-16T03:22:12.695Z,0
2018-10-16T03:23:24.906Z,0
2018-10-16T03:24:37.025Z,0
2018-10-16T03:25:49.284Z,0
2018-10-16T03:27:01.406Z,0
2018-10-16T03:28:13.667Z,0
2018-10-16T03:29:25.785Z,0
2018-10-16T03:30:38.070Z,0
2018-10-16T03:31:50.252Z,0
2018-10-16T03:33:02.447Z,0
2018-10-16T03:34:14.648Z,0
2018-10-16T03:35:26.836Z,0
2018-10-16T03:36:38.957Z,0
2018-10-16T03:37:51.162Z,0
2018-10-16T03:39:03.411Z,0
2018-10-16T03:40:15.600Z,0
2018-10-16T03:41:27.806Z,0
2018-10-16T03:42:39.926Z,0
2018-10-16T03:43:52.187Z,0
2018-10-16T03:45:04.307Z,0
2018-10-16T03:46:16.504Z,0
2018-10-16T03:47:28.793Z,0
2018-10-16T03:48:40.964Z,0
2018-10-16T03:49:53.158Z,0
2018-10-16T03:51:05.411Z,0
2018-10-16T03:52:17.481Z,0
2018-10-16T03:53:29.715Z,0
2018-10-16T03:54:41.937Z,0
2018-10-16T03:55:54.073Z,0
2018-10-16T03:57:06.317Z,0
2018-10-16T03:58:18.449Z,0
2018-10-16T03:59:30.690Z,0
2018-10-16T04:00:42.829Z,0
2018-10-16T04:01:55.107Z,0
2018-10-16T04:03:07.285Z,0
2018-10-16T04:04:19.478Z,0
2018-10-16T04:05:31.677Z,0
2018-10-16T04:06:43.877Z,0
2018-10-16T04:07:56.066Z,0
2018-10-16T04:09:08.258Z,0
2018-10-16T04:10:20.374Z,0
2018-10-16T04:11:32.719Z,0
2018-10-16T04:12:44.877Z,0
2018-10-16T04:13:57.042Z,0
2018-10-16T04:15:09.224Z,0
2018-10-16T04:16:21.411Z,0
2018-10-16T04:17:33.538Z,0
2018-10-16T04:18:45.842Z,0
2018-10-16T04:19:57.924Z,0
2018-10-16T04:21:10.115Z,0
2018-10-16T04:22:22.381Z,0
2018-10-16T04:23:34.576Z,0
2018-10-16T04:24:46.745Z,0
2018-10-16T04:25:58.962Z,0
2018-10-16T04:27:11.162Z,0
2018-10-16T04:28:23.384Z,0
2018-10-16T04:29:35.542Z,0
2018-10-16T04:30:47.783Z,0
2018-10-16T04:31:59.856Z,0
2018-10-16T04:33:12.140Z,0
2018-10-16T04:34:24.320Z,0
2018-10-16T04:35:36.513Z,0
2018-10-16T04:36:48.647Z,0
2018-10-16T04:38:00.830Z,0
2018-10-16T04:39:13.025Z,0
2018-10-16T04:40:25.367Z,0
2018-10-16T04:41:37.420Z,0
2018-10-16T04:42:49.606Z,0
2018-10-16T04:44:01.829Z,0
2018-10-16T04:45:13.993Z,0
2018-10-16T04:46:26.256Z,0
2018-10-16T04:47:38.379Z,0
2018-10-16T04:48:50.567Z,0
2018-10-16T04:50:02.770Z,0
2018-10-16T04:51:15.088Z,0
2018-10-16T04:52:27.237Z,0
2018-10-16T04:53:39.436Z,0
2018-10-16T04:54:51.656Z,0
2018-10-16T04:56:03.822Z,0
2018-10-16T04:57:16.632Z,0
2018-10-16T04:58:28.123Z,0
2018-10-16T04:59:40.473Z,0
2018-10-16T05:00:52.512Z,0
2018-10-16T05:02:04.700Z,0
2018-10-16T05:03:16.969Z,0
2018-10-16T05:04:29.093Z,0
2018-10-16T05:05:41.288Z,0
2018-10-16T05:06:53.689Z,0
2018-10-16T05:08:05.746Z,0
2018-10-16T05:09:17.935Z,0
2018-10-16T05:10:30.057Z,0
2018-10-16T05:11:42.284Z,0
2018-10-16T05:12:54.443Z,0
2018-10-16T05:14:06.706Z,0
2018-10-16T05:15:18.906Z,0
2018-10-16T05:16:31.029Z,0
2018-10-16T05:17:43.297Z,0
2018-10-16T05:18:55.552Z,0
2018-10-16T05:20:07.609Z,0
2018-10-16T05:21:20.025Z,0
2018-10-16T05:22:31.998Z,0
2018-10-16T05:23:44.256Z,0
2018-10-16T05:24:56.461Z,0
2018-10-16T05:26:08.580Z,0
2018-10-16T05:27:20.768Z,0
2018-10-16T05:28:33.048Z,0
2018-10-16T05:29:45.310Z,0
2018-10-16T05:30:57.432Z,0
2018-10-16T05:32:09.548Z,0
2018-10-16T05:33:21.741Z,0
2018-10-16T05:34:34.014Z,0
2018-10-16T05:35:46.195Z,0
2018-10-16T05:36:58.396Z,0
2018-10-16T05:38:10.580Z,0
2018-10-16T05:39:22.779Z,0
2018-10-16T05:40:35.029Z,0
2018-10-16T05:41:47.215Z,0
2018-10-16T05:42:59.357Z,0
2018-10-16T05:44:11.788Z,0
2018-10-16T05:45:23.675Z,0
2018-10-16T05:46:35.943Z,0
2018-10-16T05:47:48.131Z,0
2018-10-16T05:49:00.253Z,0
2018-10-16T05:50:12.522Z,0
2018-10-16T05:51:24.721Z,0
2018-10-16T05:52:36.842Z,0
2018-10-16T05:53:49.112Z,0
2018-10-16T05:55:01.300Z,0
2018-10-16T05:56:13.610Z,0
2018-10-16T05:57:25.687Z,0
2018-10-16T05:58:37.887Z,0
2018-10-16T05:59:49.996Z,0
2018-10-16T06:01:02.189Z,5
2018-10-16T06:02:14.385Z,5
2018-10-16T06:03:26.651Z,5
2018-10-16T06:04:38.769Z,5
2018-10-16T06:05:51.062Z,5
2018-10-16T06:07:03.303Z,5
2018-10-16T06:08:15.465Z,5
2018-10-16T06:09:27.628Z,5
2018-10-16T06:10:39.735Z,5
2018-10-16T06:11:52.012Z,11
2018-10-16T06:13:04.203Z,11
2018-10-16T06:14:16.389Z,11
2018-10-16T06:15:28.586Z,11
2018-10-16T06:16:40.706Z,11
2018-10-16T06:17:52.907Z,11
2018-10-16T06:19:05.101Z,11
2018-10-16T06:20:17.358Z,11
2018-10-16T06:21:29.557Z,16
2018-10-16T06:22:41.671Z,16
2018-10-16T06:23:53.946Z,16
2018-10-16T06:25:06.144Z,16
2018-10-16T06:26:18.329Z,16
2018-10-16T06:27:30.521Z,16
2018-10-16T06:28:42.642Z,16
2018-10-16T06:29:54.917Z,16
2018-10-16T06:31:07.101Z,22
2018-10-16T06:32:19.527Z,22
2018-10-16T06:33:31.500Z,22
2018-10-16T06:34:43.614Z,22
2018-10-16T06:35:55.881Z,22
2018-10-16T06:37:08.011Z,22
2018-10-16T06:38:20.286Z,22
2018-10-16T06:39:32.461Z,28
2018-10-16T06:40:44.663Z,28
2018-10-16T06:41:56.842Z,28
2018-10-16T06:43:09.101Z,28
2018-10-16T06:44:21.180Z,28
2018-10-16T06:45:33.364Z,28
2018-10-16T06:46:45.608Z,28
2018-10-16T06:48:00.804Z,28
2018-10-16T06:49:10.184Z,28
2018-10-16T06:50:22.202Z,28
2018-10-16T06:51:34.329Z,28
2018-10-16T06:52:46.602Z,28
2018-10-16T06:53:58.798Z,33
2018-10-16T06:55:10.993Z,33
2018-10-16T06:56:23.315Z,33
2018-10-16T06:57:35.422Z,33
2018-10-16T06:58:47.487Z,33
2018-10-16T06:59:59.755Z,33
2018-10-16T07:01:11.960Z,33
2018-10-16T07:02:24.163Z,33
2018-10-16T07:03:38.023Z,33
2018-10-16T07:04:48.536Z,39
2018-10-16T07:06:00.687Z,39
2018-10-16T07:07:12.918Z,39
2018-10-16T07:08:25.122Z,39
2018-10-16T07:09:37.233Z,39
2018-10-16T07:10:49.497Z,39
2018-10-16T07:12:01.728Z,45
2018-10-16T07:13:13.961Z,45
2018-10-16T07:14:26.001Z,45
2018-10-16T07:15:38.203Z,45
2018-10-16T07:16:50.390Z,50
2018-10-16T07:18:02.667Z,50
2018-10-16T07:19:14.851Z,50
2018-10-16T07:20:26.968Z,50
2018-10-16T07:21:39.436Z,50
2018-10-16T07:22:51.440Z,50
2018-10-16T07:24:03.636Z,56
2018-10-16T07:25:15.866Z,56
2018-10-16T07:26:28.009Z,67
2018-10-16T07:27:40.318Z,61
2018-10-16T07:28:52.410Z,61
2018-10-16T07:30:07.092Z,67
2018-10-16T07:31:16.879Z,67
2018-10-16T07:32:28.943Z,73
2018-10-16T07:33:41.189Z,84
2018-10-16T07:34:53.295Z,78
2018-10-16T07:36:05.559Z,73
2018-10-16T07:37:17.687Z,73
2018-10-16T07:38:29.953Z,78
2018-10-16T07:39:42.075Z,73
2018-10-16T07:40:54.343Z,78
2018-10-16T07:42:06.549Z,78
2018-10-16T07:43:18.767Z,95
2018-10-16T07:44:31.062Z,73
2018-10-16T07:45:43.115Z,73
2018-10-16T07:46:55.310Z,101
2018-10-16T07:48:07.500Z,84
2018-10-16T07:49:19.699Z,112
2018-10-16T07:50:31.939Z,123
2018-10-16T07:51:44.081Z,129
2018-10-16T07:52:56.303Z,140
2018-10-16T07:54:08.395Z,146
2018-10-16T07:55:20.618Z,157
2018-10-16T07:56:32.834Z,157
2018-10-16T07:57:45.081Z,168
2018-10-16T07:58:57.177Z,180
2018-10-16T08:00:09.372Z,180
2018-10-16T08:01:21.556Z,174
2018-10-16T08:02:33.770Z,185
2018-10-16T08:03:46.028Z,196
2018-10-16T08:04:58.231Z,202
2018-10-16T08:06:10.424Z,208
2018-10-16T08:07:22.533Z,202
2018-10-16T08:08:34.815Z,219
2018-10-16T08:09:47.006Z,225
2018-10-16T08:10:59.185Z,236
2018-10-16T08:12:11.380Z,241
2018-10-16T08:13:23.574Z,247
2018-10-16T08:14:35.772Z,258
2018-10-16T08:15:47.898Z,264
2018-10-16T08:17:00.149Z,264
2018-10-16T08:18:12.368Z,264
2018-10-16T08:19:24.463Z,275
2018-10-16T08:20:36.741Z,281
2018-10-16T08:21:48.930Z,292
2018-10-16T08:23:01.125Z,298
2018-10-16T08:24:13.261Z,309
2018-10-16T08:25:25.506Z,298
2018-10-16T08:26:37.839Z,298
2018-10-16T08:27:49.823Z,309
2018-10-16T08:29:02.107Z,320
2018-10-16T08:30:14.282Z,376
2018-10-16T08:31:26.487Z,388
2018-10-16T08:32:39.164Z,388
2018-10-16T08:33:50.804Z,376
2018-10-16T08:35:03.063Z,393
2018-10-16T08:36:15.256Z,399
2018-10-16T08:37:27.374Z,191
2018-10-16T08:54:24.732Z,410
2018-10-16T08:55:36.860Z,1153
2018-10-16T08:56:49.121Z,455
2018-10-16T08:58:01.319Z,534
2018-10-16T08:59:13.531Z,421
2018-10-16T09:00:25.640Z,416
2018-10-16T09:01:37.909Z,427
2018-10-16T09:02:50.044Z,433
2018-10-16T09:04:02.223Z,444
2018-10-16T09:05:14.454Z,483
2018-10-16T09:06:26.611Z,489
2018-10-16T09:07:38.804Z,466
2018-10-16T09:08:51.000Z,444
2018-10-16T09:10:03.270Z,534
2018-10-16T09:11:15.459Z,472
2018-10-16T09:12:27.584Z,483
2018-10-16T09:13:39.776Z,500
2018-10-16T09:14:52.045Z,506
2018-10-16T09:16:04.264Z,500
2018-10-16T09:17:16.430Z,517
2018-10-16T09:18:28.638Z,517
2018-10-16T09:19:40.748Z,517
2018-10-16T09:20:52.945Z,534
2018-10-16T09:22:05.214Z,540
2018-10-16T09:23:17.339Z,545
2018-10-16T09:24:29.600Z,534
2018-10-16T09:25:41.859Z,534
2018-10-16T09:26:53.994Z,528
2018-10-16T09:28:06.116Z,528
2018-10-16T09:29:18.386Z,545
2018-10-16T09:30:30.502Z,556
2018-10-16T09:31:42.784Z,568
2018-10-16T09:32:54.991Z,568
2018-10-16T09:34:07.208Z,579
2018-10-16T09:35:19.296Z,585
2018-10-16T09:36:31.488Z,556
2018-10-16T09:37:43.753Z,540
2018-10-16T09:38:55.878Z,562
2018-10-16T09:40:08.081Z,556
2018-10-16T09:41:20.266Z,545
2018-10-16T09:42:32.533Z,523
2018-10-16T09:43:44.743Z,517
2018-10-16T09:44:57.446Z,517
2018-10-16T09:46:09.240Z,534
2018-10-16T09:47:21.320Z,545
2018-10-16T09:48:33.448Z,568
2018-10-16T09:49:45.794Z,573
2018-10-16T09:50:57.903Z,568
2018-10-16T09:52:10.036Z,556
2018-10-16T09:53:22.227Z,573
2018-10-16T09:54:34.439Z,585
2018-10-16T09:55:46.687Z,596
2018-10-16T09:56:58.887Z,590
2018-10-16T09:58:11.005Z,573
2018-10-16T09:59:23.227Z,562
2018-10-16T10:00:35.397Z,579
2018-10-16T10:01:47.626Z,556
2018-10-16T10:02:59.869Z,540
2018-10-16T10:04:12.058Z,556
2018-10-16T10:05:24.186Z,573
2018-10-16T10:06:36.480Z,528
2018-10-16T10:07:48.608Z,444
2018-10-16T10:09:00.937Z,483
2018-10-16T10:10:12.969Z,568
2018-10-16T10:11:25.913Z,568
2018-10-16T10:12:37.428Z,596
2018-10-16T10:13:49.553Z,635
2018-10-16T10:15:01.841Z,607
2018-10-16T10:16:14.017Z,579
2018-10-16T10:17:26.136Z,562
2018-10-16T10:18:38.412Z,568
2018-10-16T10:19:50.599Z,601
2018-10-16T10:21:02.728Z,624
2018-10-16T10:22:14.988Z,635
2018-10-16T10:23:27.197Z,635
2018-10-16T10:24:39.309Z,607
2018-10-16T10:25:51.591Z,596
2018-10-16T10:27:03.798Z,613
2018-10-16T10:28:15.973Z,601
2018-10-16T10:29:28.250Z,585
2018-10-16T10:30:40.383Z,556
2018-10-16T10:31:52.575Z,579
2018-10-16T10:33:04.762Z,607
2018-10-16T10:34:16.987Z,607
2018-10-16T10:35:29.079Z,624
2018-10-16T10:36:41.273Z,613
2018-10-16T10:37:53.541Z,551
2018-10-16T10:39:05.738Z,596
2018-10-16T10:40:17.929Z,579
2018-10-16T10:41:30.134Z,534
2018-10-16T10:42:42.247Z,573
2018-10-16T10:43:54.455Z,607
2018-10-16T10:45:07.980Z,630
2018-10-16T10:46:18.911Z,618
2018-10-16T10:47:31.112Z,646
2018-10-16T10:48:43.233Z,652
2018-10-16T10:49:55.538Z,607
2018-10-16T10:51:07.629Z,618
2018-10-16T10:52:19.820Z,630
